Current Conditions
Plutôt Nuageux
Conditions




Pressure
1019.92 (hPa) - 30.12 (inHG)
Visibility

10.0 (km) - 6.2 (miles)
   Temperature
7  °C
45°F
7  °C
Dewpoint
100  %
 Humidity
   Wind Speed
32  km/h
17  kts
20  mph
8.9  m/s
   Wind Direction
 230°
South West
   Airport Data
ELLX
Location Luxembourg-Findel International 36 km (22.37 mi)
Metar :ELLX 230750Z 23017KT 9999 BKN004 07/07 Q1020 NOSIG
Sun 23rd February 08:50 am
   Raw Metar Info
Raw METAR is the most common format in the world for the transmission of observational weather data. It is highly standardized through the International Civil Aviation Organization (ICAO), which allows it to be understood throughout most of the world.
   API Info
Data Provided by
https://www.checkwx.com/weather/ELLX
   © Info
CSS/SVG/PHP scripts were developed by weather34.com for use in the weather34 template © 2015-2020

Guide Info provided by Metar-Wikipedia